Ride Results

St Albans (25-05-2008)
Ride distance: 100.0 km Elevator

Outcomes - St Albans (25-05-2008)
Division No. of Entries Retired / DNE Completed Withdrawn Ineligible V/O Percentage Completed
HW 22 8 8 2 1 3 72.73%
MW 40 17 9 1 1 12 65.00%
LW 13 6 3 1 - 3 69.23%
JN 2 - 0 - - 2 0.00%
Totals 77 31 20 4 2 20 66.23%
Results - St Albans (25-05-2008)
No. Rider Horse Place Time Leg Speeds Total
Km/Hr
H/R bpm
Heavyweight
91 Duncan Satchell Alhambra Mirage 1 (BC) 5:32:00 18.7, 15.6, 23.6 18.07 35, 41, 48, 45 (Avg:44)
12 Roy Counsell Tristram The Edge 2 6:33:00 15.2, 13.6, 21.4 15.27 36, 46, 48, 53 (Avg:49)
89 Allan Caslick Parlour Mountain Khancoban 3 6:34:00 16.3, 11.7, 27.2 15.23 38, 46, 48, 48 (Avg:47)
81 Peter Norman Happy Jack 4 6:50:00 15.2, 12.8, 18.3 14.63 36, 42, 45, 42 (Avg:43)
80 Kym Hagon Diamond R Boston 5 7:50:00 14.3, 10.3, 15.5 12.77 40, 52, 54, 48 (Avg:51)
73 Les Robinson Karumba Cadence 6 8:30:00 13.8, 10.4, 9.6 11.76 38, 44, 50, 46 (Avg:46)
74 Con Bouzianis Conderosa Farah 7 8:52:00 12.4, 11.4, 8.4 11.28 36, 51, 54, 52 (Avg:52)
90 Ian Dreghorn Mountain Breeze Jack The Ripper 8 9:42:00 10.8, 8.6, 14.5 10.31 33, 44, 49, 52 (Avg:48)
72 Paul Monger Oak Glen Dark Rose Retired/DNE L2 6:58:00 13.8, 10.3 12.20 37, 48, 49 (Avg:48)
84 Brodie Freeman Cedar Ridge Divide and Rule Retired/DNE L2 7:12:00 12.3, 11.1 11.81 34, 45, 48 (Avg:46)
76 Michael Boland A'Landell Karlinta Retired/DNE L2 7:18:00 12.7, 10.3 11.64 35, 44, 44 (Avg:44)
75 Greg Moore Parkview Armageddon Retired/DNE L2 7:27:00 12.8, 9.8 11.41 33, 42, 44 (Avg:43)
71 Len Derkacz Torryburn Rahal Retired/DNE L2 7:41:00 12.4, 9.5 11.06 36, 48, 56 (Avg:52)
83 Neil Clarkson Espirit Sherwood Retired/DNE L2 7:49:00 12.5, 9.1 10.87 29, 40, 46 (Avg:43)
87 Stuart Hitchcock Ralvon Courier Retired/DNE L2 8:56:00 10.0, 8.8 9.51 38, 48, 43 (Avg:45)
78 Denise Trollope Churinga Goldfire Retired/DNE L2 9:03:00 10.2, 8.3 9.39 32, 48, 53 (Avg:50)
82 Dallas Blakely Rachem Mustava Heart Out of Time L2 0:00:00 8.1, 7.4 - 33, 46, 58 (Avg:52)
77 Charles Gauci Stacey-Le Zorro Lame L1 0:00:00 10.3 - 36, 43 (Avg:43)
79 Brad Jones Clovelly Park Samson Withdrawn L1 0:00:00 - - 33, 41 (Avg:41)
86 Norm Leaney Red Bluff Early Endeavour Lame L1 0:00:00 11.2 - 36, 43 (Avg:43)
85 Alan Mackinder Palio Withdrawn L1 0:00:00 - - 36, 42 (Avg:42)
88 Sue Warren Warren Park O.B. One Lame L1 0:00:00 12.3 - 41, 52 (Avg:52)
Middleweight
3 Jennifer Gilbertson Master Renaut (Ferrymaster at Webbs Creek) 1 6:03:00 16.3, 15.1, 21.9 16.53 29, 39, 42, 42 (Avg:41)
34 Emily Streckfuss Webbs Creek Starlight 1 (BC) 6:03:00 16.3, 15.1, 21.9 16.53 29, 38, 40, 42 (Avg:40)
25 Louise McCormack Formosa Park Tali 3 6:07:00 15.1, 16.7, 20.4 16.35 34, 40, 43, 44 (Avg:42)
18 Peter Kelly Wollumbin Faiz 4 6:35:00 16.1, 12.8, 19.5 15.19 36, 41, 42, 42 (Avg:41)
4 Garry Bennett Karabil Paraji 5 7:01:00 14.0, 12.6, 21.4 14.25 29, 37, 40, 41 (Avg:39)
28 Naomi Djuric Devi 6 7:27:00 13.1, 11.7, 22.5 13.42 32, 47, 40, 48 (Avg:45)
1 Thomas Hermann Kurrajong Sar Shimba 7 7:45:00 12.8, 11.9, 15.7 12.90 38, 47, 47, 48 (Avg:47)
2 Raymond Griffiths Alhambra Jazz Dancer 8 8:12:00 14.2, 10.1, 12.1 12.20 35, 41, 44, 45 (Avg:43)
15 Marita Rifai Tuldar Slingshot 9 8:30:00 13.8, 10.4, 9.6 11.76 32, 41, 53, 41 (Avg:45)
36 Susanne Reimann Valinor Park Blue Moon Retired/DNE L2 6:48:00 14.0, 10.7 12.50 46, 47, 50 (Avg:48)
11 Lisa Keyes Coolahlee Park Sarah Retired/DNE L2 7:04:00 13.4, 10.4 12.03 35, 41, 46 (Avg:43)
39 Mark Harvey Raymar Lyla Retired/DNE L2 7:08:00 12.9, 10.7 11.92 40, 46, 56 (Avg:51)
41 Katherin Schemann Raymar Yasmin (exp BH) Retired/DNE L2 7:08:00 12.9, 10.7 11.92 36, 41, 42 (Avg:41)
26 Blake Freeman Cedar Ridge Magnetic Retired/DNE L2 7:12:00 12.3, 11.1 11.81 38, 42, 48 (Avg:45)
27 Jason Kirk Cedar Ridge Desert Express Retired/DNE L2 7:12:00 12.3, 11.1 11.81 40, 46, 51 (Avg:48)
38 Jenny Vandervelden Bailey Royale Retired/DNE L2 7:49:00 11.2, 10.3 10.87 38, 47, 45 (Avg:46)
21 Angela Molnar Webbs Creek Walkabout Retired/DNE L2 7:50:00 11.6, 9.9 10.85 37, 42, 46 (Avg:44)
30 Terry Wood Tallawarra Chance Retired/DNE L2 8:34:00 10.7, 8.9 9.92 38, 41, 45 (Avg:43)
22 Allison Knihinicki Tuldar Desert Falcon Retired/DNE L2 8:35:00 10.9, 8.7 9.90 33, 42, 39 (Avg:40)
19 Brian Norton Canyonleigh Paddy's Riverdance Retired/DNE L2 8:41:00 11.1, 8.3 9.79 46, 54, 58 (Avg:56)
29 April Bonham Farras Retired/DNE L2 8:56:00 10.0, 8.8 9.51 34, 34, 50 (Avg:42)
13 Rochelle Dawe Chazar Mystical Warrior Retired/DNE L2 8:56:00 10.3, 8.5 9.51 43, 44, 46 (Avg:45)
20 Alex Baczocha Colo Vivette Retired/DNE L2 9:03:00 10.2, 8.3 9.39 35, 39, 36 (Avg:37)
17 Sonya Ruprecht Summerwood Naivasha Retired/DNE L2 9:19:00 9.7, 8.3 9.12 30, 38, 47 (Avg:42)
31 Ruth Van der Wegen Magic Prague Retired/DNE L2 9:19:00 9.7, 8.3 9.12 38, 44, 43 (Avg:43)
16 Kim Corliss Celsar Rahil Retired/DNE L2 9:53:00 8.2, 9.0 8.60 32, 42, 48 (Avg:45)
24 Brad Dillon Ebonglen Holmegaard Lame L3 0:00:00 16.3, 13.1, 19.9 - 33, 41, 44, 46 (Avg:43)
23 Andrew Blakely Kalkadoon Sharif Out of Time L2 0:00:00 8.1, 7.4 - 34, 46, 56 (Avg:51)
10 Margaret Boland Rosebrae Apollo Lame L2 0:00:00 12.7, 10.3 - 36, 55, 64 (Avg:59)
5 Renee Kirk Cherox Assassin Heart Rate L2 0:00:00 11.9, 10.9 - 35, 54, 63 (Avg:58)
32 Emma McMurrich Simba Lame L2 0:00:00 11.0, 9.1 - 34, 44, 43 (Avg:43)
14 Julie Scruse Omani Hilite Lame L2 0:00:00 13.4, 10.4 - 40, 45, 50 (Avg:47)
40 Felicity Baird Raymar Sabah Lame L1 0:00:00 12.9 - 40, 44 (Avg:44)
7 Tom Bouzianis Inshallah Rhapsody Lame L1 0:00:00 11.3 - 41, 0 (Avg:0)
8 Tracy Broadbent Kynnum Park Sahara Lame L1 0:00:00 14.0 - 35, 40 (Avg:40)
37 Frances Derschow Dante Withdrawn L1 0:00:00 - - 36, 40 (Avg:40)
9 Amanda Jansen Coolahlee Park Samba Lame L1 0:00:00 10.7 - 36, 44 (Avg:44)
6 Susan Pritchard Macquarie Park Dakota Lame L1 0:00:00 11.9 - 40, 49 (Avg:49)
35 Shannan Shultz A'Landell Karrule Heart Rate L1 0:00:00 11.5 - 38, 60 (Avg:60)
33 Cheryl Strachan Mira Monte Dance On Lame L1 0:00:00 12.6 - 33, 41 (Avg:41)
Lightweight
59 Shelly Ison Karabil Mokari 1 6:50:00 15.2, 12.8, 18.3 14.63 34, 41, 41, 45 (Avg:42)
54 Robin Gossip Wesswood Willow 2 (BC) 6:58:00 15.1, 12.0, 19.5 14.35 36, 50, 40, 46 (Avg:45)
51 Debbie Pevy Conderosa Rassim 3 8:52:00 12.4, 11.4, 8.4 11.28 27, 33, 36, 37 (Avg:35)
55 Carol Layton Omani Mr Sqiggle Retired/DNE L2 7:44:00 12.7, 9.1 10.99 34, 44, 44 (Avg:44)
60 Emma Broome Tallawarra Jalibur Retired/DNE L2 8:34:00 10.7, 8.9 9.92 39, 40, 44 (Avg:42)
62 Faith Robinson Pinedale QJ Kelsey Retired/DNE L2 8:35:00 10.9, 8.7 9.90 36, 40, 44 (Avg:42)
58 Jan Wade Hajra Leonie Retired/DNE L2 8:35:00 11.0, 8.6 9.90 34, 39, 56 (Avg:47)
61 Samantha West Ehsun Sahara Retired/DNE L2 8:40:00 10.2, 9.2 9.81 36, 46, 50 (Avg:48)
56 Wendy Jones Nioka Park Major Retired/DNE L2 9:53:00 8.2, 9.0 8.60 36, 40, 54 (Avg:47)
57 Allix Jones Nioka Park Vain Lame L2 0:00:00 8.2, 11.7 - 42, 54, 56 (Avg:55)
53 Sue Todd Shakista Withdrawn L2 0:00:00 - - 42, 46, 54 (Avg:50)
52 Annette Gifford Porcelyn Bey Lame L1 0:00:00 13.6 - 37, 64 (Avg:64)
63 Mary Hollingsworth Henley Farm Khadd Heart Rate L1 0:00:00 10.3 - 40, 64 (Avg:64)
Junior
100 Sophie Counsell Kintamani Bartholemew Lame L2 0:00:00 10.5, 8.3 - 26, 36, 36 (Avg:36)
99 Joshua Vandervelden Impossible Dream Lame L1 0:00:00 11.2 - 53, 50 (Avg:50)